Jolyn — PJWG — position and weather

sailwx.info

Track history (hours):
 
Tides and Currents Weather Stations Pressure Air Temp Water Temp Dewpoint Dewpoint Depression Visibility Wind Speed Wind Dir Waves Ship Positions

Jolyn

Last reported at 2014-Jul-23 15:33 UTC. Time now 2014-Jul-23 16:18 UTC.
Position N 52°58' E 003°58'.

Length 89 m; draft 5.4 m.

Type: Cargo ship. MMSI: 306813000.

Date/timePositionNaut miles runAvg speedWind from/ knotsBaromVisibWave heightAir tempDewpointWater temp
2014-Jul-23 15:33N 52°58' E 003°58'9 9.4
2014-Jul-23 14:33N 53°04' E 004°10'9 9.4
2014-Jul-23 13:33N 53°09' E 004°22'9 9.2
2014-Jul-23 12:33N 53°17' E 004°29'1010.3
2014-Jul-23 11:33N 53°27' E 004°37'1111.0
2014-Jul-23 10:33N 53°31' E 004°54'1111.4
2014-Jul-23 09:33N 53°35' E 005°12'1211.6
2014-Jul-23 08:33N 53°39' E 005°31'1110.6
2014-Jul-23 07:33N 53°42' E 005°48'10 9.8
2014-Jul-23 06:33N 53°45' E 006°03'9 9.3
2014-Jul-23 05:33N 53°48' E 006°18'9 9.3
2014-Jul-23 04:33N 53°51' E 006°33'10 9.8
2014-Jul-23 03:33N 53°53' E 006°49'2210.7
2014-Jul-23 01:33N 53°58' E 007°25'1111.3
2014-Jul-23 00:33N 54°01' E 007°43'1211.6
2014-Jul-22 23:33N 54°01' E 008°03'1212.3
2014-Jul-22 22:33N 53°60' E 008°24'1111.0
2014-Jul-22 21:33N 53°55' E 008°41'8 8.2
2014-Jul-22 20:33N 53°51' E 008°52'8 8.3
2014-Jul-22 19:33N 53°53' E 009°06'2 2.4
2014-Jul-22 18:33N 53°54' E 009°10'4 3.8
2014-Jul-22 17:33N 53°57' E 009°14'9 8.6
2014-Jul-22 16:33N 54°05' E 009°19'54 5.3
2014-Jul-22 06:16N 54°34' E 010°37'7 9.8
2014-Jul-22 05:31N 54°35' E 010°50'1010.7
2014-Jul-22 04:33N 54°36' E 011°07'1110.9
2014-Jul-22 03:33N 54°32' E 011°25'1110.7
2014-Jul-22 02:33N 54°27' E 011°41'1010.1
2014-Jul-22 01:33N 54°26' E 011°59'9 9.1
2014-Jul-22 00:33N 54°31' E 012°12'10 9.8
2014-Jul-21 23:33N 54°39' E 012°21'1010.3
2014-Jul-21 22:33N 54°45' E 012°36'1010.0
2014-Jul-21 21:33N 54°49' E 012°52'10 9.8
2014-Jul-21 20:33N 54°52' E 013°08'3 9.9
2014-Jul-21 20:17N 54°53' E 013°12'8 9.8
2014-Jul-21 19:31N 54°56' E 013°25'9 9.8
2014-Jul-21 18:33N 54°59' E 013°40'1110.1
2014-Jul-21 17:29N 55°03' E 013°58'9 9.5
2014-Jul-21 16:32N 55°09' E 014°08'1010.1
2014-Jul-21 15:31N 55°17' E 014°21'1110.2
2014-Jul-21 14:28N 55°25' E 014°33'9 9.5
2014-Jul-21 13:33N 55°30' E 014°46'1010.0
2014-Jul-21 12:33N 55°34' E 015°02'5210.2
2014-Jul-21 07:27N 55°48' E 016°31'910.1
2014-Jul-21 06:33N 55°50' E 016°46'1010.1
2014-Jul-21 05:33N 55°53' E 017°04'1010.1
2014-Jul-21 04:31N 55°56' E 017°21'1010.1
2014-Jul-21 03:32N 55°59' E 017°38'1010.2
2014-Jul-21 02:33N 56°02' E 017°56'1010.2
2014-Jul-21 01:33N 56°04' E 018°13'1010.3
2014-Jul-21 00:33N 56°07' E 018°31'1010.3
2014-Jul-20 23:33N 56°10' E 018°49'1010.2
2014-Jul-20 22:33N 56°13' E 019°06'1010.1
2014-Jul-20 21:33N 56°16' E 019°24'1010.0
2014-Jul-20 20:33N 56°19' E 019°41'1110.4
2014-Jul-20 19:28N 56°23' E 020°00'910.3
2014-Jul-20 18:33N 56°26' E 020°16'1010.2
2014-Jul-20 17:33N 56°28' E 020°34'1410.0
2014-Jul-20 16:11N 56°32' E 020°58'1 0.5
2014-Jul-20 14:30N 56°32' E 020°60'0 0.0
2014-Jul-20 13:27N 56°32' E 020°60'0 0.0
2014-Jul-20 12:30N 56°32' E 020°60'0 0.0
2014-Jul-20 11:27N 56°32' E 020°60'0 0.0
2014-Jul-20 10:30N 56°32' E 020°60'0 0.0
2014-Jul-20 09:33N 56°32' E 020°60'0 0.0
2014-Jul-20 08:30N 56°32' E 020°60'0 0.0
2014-Jul-20 07:30N 56°32' E 020°60'0 0.0
2014-Jul-20 04:30N 56°32' E 020°60'0 0.0
2014-Jul-20 03:30N 56°32' E 020°60'0 0.0
2014-Jul-20 02:33N 56°32' E 020°60'1 0.2
2014-Jul-19 23:04N 56°32' E 020°59'2 4.8
2014-Jul-19 22:34N 56°31' E 020°55'10 9.5
2014-Jul-19 21:33N 56°41' E 020°50'1211.5
2014-Jul-19 20:33N 56°52' E 020°53'1211.9
2014-Jul-19 19:33N 57°04' E 020°56'1212.1
2014-Jul-19 18:34N 57°16' E 020°59'1212.2
2014-Jul-19 17:33N 57°28' E 021°02'1212.4
2014-Jul-19 16:33N 57°40' E 021°06'4112.5
2014-Jul-19 13:17N 58°20' E 021°19'912.3
2014-Jul-19 12:33N 58°29' E 021°22'1312.3
2014-Jul-19 11:32N 58°42' E 021°26'7510.6
2014-Jul-19 04:25N 59°36' E 023°07'1011.5
2014-Jul-19 03:33N 59°40' E 023°25'1712.2
2014-Jul-19 02:09N 59°49' E 023°55'712.0
2014-Jul-19 01:33N 59°52' E 024°07'  
2014-Jul-16 16:03N 59°55' E 024°14'710.4
2014-Jul-16 15:25N 59°50' E 024°07'1010.8
2014-Jul-16 14:31N 59°42' E 023°56'1010.6
2014-Jul-16 13:33N 59°37' E 023°38'1110.9
2014-Jul-16 12:33N 59°34' E 023°18'30610.4
2014-Jul-15 07:13N 55°58' E 016°30'710.3
2014-Jul-15 06:33N 55°55' E 016°19'1510.7
2014-Jul-15 05:10N 55°47' E 015°56'910.7
2014-Jul-15 04:18N 55°43' E 015°42'1310.6
2014-Jul-15 03:07N 55°37' E 015°22'1810.5
2014-Jul-15 01:26N 55°28' E 014°56'910.5
2014-Jul-15 00:33N 55°23' E 014°42'1010.3
2014-Jul-14 23:33N 55°15' E 014°30'1010.1
2014-Jul-14 22:33N 55°08' E 014°18'2010.1
2014-Jul-14 20:33N 54°57' E 013°48'1010.5
2014-Jul-14 19:33N 54°53' E 013°31'1010.3
2014-Jul-14 18:33N 54°50' E 013°14'1010.6
2014-Jul-14 17:33N 54°46' E 012°58'1110.8
2014-Jul-14 16:33N 54°40' E 012°42'1110.8
2014-Jul-14 15:33N 54°34' E 012°26'1110.8
2014-Jul-14 14:33N 54°27' E 012°13'10 9.6
2014-Jul-14 13:33N 54°24' E 011°57'1010.3
2014-Jul-14 12:33N 54°27' E 011°40'1110.7
2014-Jul-14 11:33N 54°31' E 011°23'1111.0
2014-Jul-14 10:33N 54°35' E 011°05'57 8.1
2014-Jul-14 03:29N 54°13' E 009°35'9 8.9
2014-Jul-14 02:29N 54°09' E 009°21'8 8.6
2014-Jul-14 01:33N 54°01' E 009°18'8 8.1
2014-Jul-14 00:33N 53°54' E 009°10'2 1.5
2014-Jul-13 23:33N 53°53' E 009°08'2 2.4
2014-Jul-13 22:33N 53°53' E 009°04'4 4.3
2014-Jul-13 21:33N 53°51' E 008°58'9 9.5
2014-Jul-13 20:33N 53°53' E 008°42'9 9.4
2014-Jul-13 19:33N 53°58' E 008°29'1010.2
2014-Jul-13 18:33N 53°59' E 008°12'1110.5
2014-Jul-13 17:33N 53°57' E 007°54'10 9.9
2014-Jul-13 16:33N 53°56' E 007°37'  
Track history (hours):
 
Tides and Currents Weather Stations Pressure Air Temp Water Temp Dewpoint Dewpoint Depression Visibility Wind Speed Wind Dir Waves Ship Positions

Jolyn

Last reported at 2014-Jul-23 15:33 UTC. Time now 2014-Jul-23 16:18 UTC.
Position N 52°58' E 003°58'.

Length 89 m; draft 5.4 m.

Type: Cargo ship. MMSI: 306813000.

Date/timePositionNaut miles runAvg speedWind from/ knotsBaromVisibWave heightAir tempDewpointWater temp
2014-Jul-23 15:33N 52°58' E 003°58'9 9.4
2014-Jul-23 14:33N 53°04' E 004°10'9 9.4
2014-Jul-23 13:33N 53°09' E 004°22'9 9.2
2014-Jul-23 12:33N 53°17' E 004°29'1010.3
2014-Jul-23 11:33N 53°27' E 004°37'1111.0
2014-Jul-23 10:33N 53°31' E 004°54'1111.4
2014-Jul-23 09:33N 53°35' E 005°12'1211.6
2014-Jul-23 08:33N 53°39' E 005°31'1110.6
2014-Jul-23 07:33N 53°42' E 005°48'10 9.8
2014-Jul-23 06:33N 53°45' E 006°03'9 9.3
2014-Jul-23 05:33N 53°48' E 006°18'9 9.3
2014-Jul-23 04:33N 53°51' E 006°33'10 9.8
2014-Jul-23 03:33N 53°53' E 006°49'2210.7
2014-Jul-23 01:33N 53°58' E 007°25'1111.3
2014-Jul-23 00:33N 54°01' E 007°43'1211.6
2014-Jul-22 23:33N 54°01' E 008°03'1212.3
2014-Jul-22 22:33N 53°60' E 008°24'1111.0
2014-Jul-22 21:33N 53°55' E 008°41'8 8.2
2014-Jul-22 20:33N 53°51' E 008°52'8 8.3
2014-Jul-22 19:33N 53°53' E 009°06'2 2.4
2014-Jul-22 18:33N 53°54' E 009°10'4 3.8
2014-Jul-22 17:33N 53°57' E 009°14'9 8.6
2014-Jul-22 16:33N 54°05' E 009°19'54 5.3
2014-Jul-22 06:16N 54°34' E 010°37'7 9.8
2014-Jul-22 05:31N 54°35' E 010°50'1010.7
2014-Jul-22 04:33N 54°36' E 011°07'1110.9
2014-Jul-22 03:33N 54°32' E 011°25'1110.7
2014-Jul-22 02:33N 54°27' E 011°41'1010.1
2014-Jul-22 01:33N 54°26' E 011°59'9 9.1
2014-Jul-22 00:33N 54°31' E 012°12'10 9.8
2014-Jul-21 23:33N 54°39' E 012°21'1010.3
2014-Jul-21 22:33N 54°45' E 012°36'1010.0
2014-Jul-21 21:33N 54°49' E 012°52'10 9.8
2014-Jul-21 20:33N 54°52' E 013°08'3 9.9
2014-Jul-21 20:17N 54°53' E 013°12'8 9.8
2014-Jul-21 19:31N 54°56' E 013°25'9 9.8
2014-Jul-21 18:33N 54°59' E 013°40'1110.1
2014-Jul-21 17:29N 55°03' E 013°58'9 9.5
2014-Jul-21 16:32N 55°09' E 014°08'1010.1
2014-Jul-21 15:31N 55°17' E 014°21'1110.2
2014-Jul-21 14:28N 55°25' E 014°33'9 9.5
2014-Jul-21 13:33N 55°30' E 014°46'1010.0
2014-Jul-21 12:33N 55°34' E 015°02'5210.2
2014-Jul-21 07:27N 55°48' E 016°31'910.1
2014-Jul-21 06:33N 55°50' E 016°46'1010.1
2014-Jul-21 05:33N 55°53' E 017°04'1010.1
2014-Jul-21 04:31N 55°56' E 017°21'1010.1
2014-Jul-21 03:32N 55°59' E 017°38'1010.2
2014-Jul-21 02:33N 56°02' E 017°56'1010.2
2014-Jul-21 01:33N 56°04' E 018°13'1010.3
2014-Jul-21 00:33N 56°07' E 018°31'1010.3
2014-Jul-20 23:33N 56°10' E 018°49'1010.2
2014-Jul-20 22:33N 56°13' E 019°06'1010.1
2014-Jul-20 21:33N 56°16' E 019°24'1010.0
2014-Jul-20 20:33N 56°19' E 019°41'1110.4
2014-Jul-20 19:28N 56°23' E 020°00'910.3
2014-Jul-20 18:33N 56°26' E 020°16'1010.2
2014-Jul-20 17:33N 56°28' E 020°34'1410.0
2014-Jul-20 16:11N 56°32' E 020°58'1 0.5
2014-Jul-20 14:30N 56°32' E 020°60'0 0.0
2014-Jul-20 13:27N 56°32' E 020°60'0 0.0
2014-Jul-20 12:30N 56°32' E 020°60'0 0.0
2014-Jul-20 11:27N 56°32' E 020°60'0 0.0
2014-Jul-20 10:30N 56°32' E 020°60'0 0.0
2014-Jul-20 09:33N 56°32' E 020°60'0 0.0
2014-Jul-20 08:30N 56°32' E 020°60'0 0.0
2014-Jul-20 07:30N 56°32' E 020°60'0 0.0
2014-Jul-20 04:30N 56°32' E 020°60'0 0.0
2014-Jul-20 03:30N 56°32' E 020°60'0 0.0
2014-Jul-20 02:33N 56°32' E 020°60'1 0.2
2014-Jul-19 23:04N 56°32' E 020°59'2 4.8
2014-Jul-19 22:34N 56°31' E 020°55'10 9.5
2014-Jul-19 21:33N 56°41' E 020°50'1211.5
2014-Jul-19 20:33N 56°52' E 020°53'1211.9
2014-Jul-19 19:33N 57°04' E 020°56'1212.1
2014-Jul-19 18:34N 57°16' E 020°59'1212.2
2014-Jul-19 17:33N 57°28' E 021°02'1212.4
2014-Jul-19 16:33N 57°40' E 021°06'4112.5
2014-Jul-19 13:17N 58°20' E 021°19'912.3
2014-Jul-19 12:33N 58°29' E 021°22'1312.3
2014-Jul-19 11:32N 58°42' E 021°26'7510.6
2014-Jul-19 04:25N 59°36' E 023°07'1011.5
2014-Jul-19 03:33N 59°40' E 023°25'1712.2
2014-Jul-19 02:09N 59°49' E 023°55'712.0
2014-Jul-19 01:33N 59°52' E 024°07'  
2014-Jul-16 16:03N 59°55' E 024°14'710.4
2014-Jul-16 15:25N 59°50' E 024°07'1010.8
2014-Jul-16 14:31N 59°42' E 023°56'1010.6
2014-Jul-16 13:33N 59°37' E 023°38'1110.9
2014-Jul-16 12:33N 59°34' E 023°18'30610.4
2014-Jul-15 07:13N 55°58' E 016°30'710.3
2014-Jul-15 06:33N 55°55' E 016°19'1510.7
2014-Jul-15 05:10N 55°47' E 015°56'910.7
2014-Jul-15 04:18N 55°43' E 015°42'1310.6
2014-Jul-15 03:07N 55°37' E 015°22'1810.5
2014-Jul-15 01:26N 55°28' E 014°56'910.5
2014-Jul-15 00:33N 55°23' E 014°42'1010.3
2014-Jul-14 23:33N 55°15' E 014°30'1010.1
2014-Jul-14 22:33N 55°08' E 014°18'2010.1
2014-Jul-14 20:33N 54°57' E 013°48'1010.5
2014-Jul-14 19:33N 54°53' E 013°31'1010.3
2014-Jul-14 18:33N 54°50' E 013°14'1010.6
2014-Jul-14 17:33N 54°46' E 012°58'1110.8
2014-Jul-14 16:33N 54°40' E 012°42'1110.8
2014-Jul-14 15:33N 54°34' E 012°26'1110.8
2014-Jul-14 14:33N 54°27' E 012°13'10 9.6
2014-Jul-14 13:33N 54°24' E 011°57'1010.3
2014-Jul-14 12:33N 54°27' E 011°40'1110.7
2014-Jul-14 11:33N 54°31' E 011°23'1111.0
2014-Jul-14 10:33N 54°35' E 011°05'57 8.1
2014-Jul-14 03:29N 54°13' E 009°35'9 8.9
2014-Jul-14 02:29N 54°09' E 009°21'8 8.6
2014-Jul-14 01:33N 54°01' E 009°18'8 8.1
2014-Jul-14 00:33N 53°54' E 009°10'2 1.5
2014-Jul-13 23:33N 53°53' E 009°08'2 2.4
2014-Jul-13 22:33N 53°53' E 009°04'4 4.3
2014-Jul-13 21:33N 53°51' E 008°58'9 9.5
2014-Jul-13 20:33N 53°53' E 008°42'9 9.4
2014-Jul-13 19:33N 53°58' E 008°29'1010.2
2014-Jul-13 18:33N 53°59' E 008°12'1110.5
2014-Jul-13 17:33N 53°57' E 007°54'10 9.9
2014-Jul-13 16:33N 53°56' E 007°37'  

Dump ship's entire track history